sensor_id;sensor_type;location;lat;lon;timestamp;pressure;altitude;pressure_sealevel;temperature;humidity
77572;BME280;67214;47.454;18.966;2024-03-23T00:52:23;99872.40;;;5.95;82.34
77572;BME280;67214;47.454;18.966;2024-03-23T00:54:50;99875.03;;;5.95;82.33
77572;BME280;67214;47.454;18.966;2024-03-23T00:57:17;99870.23;;;5.94;82.31
77572;BME280;67214;47.454;18.966;2024-03-23T00:59:45;99863.66;;;5.94;82.35
77572;BME280;67214;47.454;18.966;2024-03-23T01:02:12;99859.50;;;5.97;82.18
77572;BME280;67214;47.454;18.966;2024-03-23T01:04:40;99857.16;;;5.93;82.42
77572;BME280;67214;47.454;18.966;2024-03-23T01:07:07;99854.63;;;5.91;82.64
77572;BME280;67214;47.454;18.966;2024-03-23T01:09:34;99846.38;;;5.90;82.63
77572;BME280;67214;47.454;18.966;2024-03-23T01:12:04;99850.59;;;5.93;82.42
77572;BME280;67214;47.454;18.966;2024-03-23T01:14:31;99833.10;;;5.92;82.37
77572;BME280;67214;47.454;18.966;2024-03-23T01:16:59;99832.38;;;5.90;82.32
77572;BME280;67214;47.454;18.966;2024-03-23T01:19:26;99839.17;;;5.87;82.34
77572;BME280;67214;47.454;18.966;2024-03-23T01:21:54;99819.95;;;5.85;82.51
77572;BME280;67214;47.454;18.966;2024-03-23T01:24:21;99834.90;;;5.84;82.80
77572;BME280;67214;47.454;18.966;2024-03-23T01:26:48;99826.75;;;5.82;82.88
77572;BME280;67214;47.454;18.966;2024-03-23T01:29:16;99828.06;;;5.82;82.93
77572;BME280;67214;47.454;18.966;2024-03-23T01:31:43;99830.95;;;5.84;82.85
77572;BME280;67214;47.454;18.966;2024-03-23T01:34:12;99829.94;;;5.80;82.83
77572;BME280;67214;47.454;18.966;2024-03-23T01:36:39;99830.14;;;5.77;83.01
77572;BME280;67214;47.454;18.966;2024-03-23T01:39:06;99826.13;;;5.71;83.36
77572;BME280;67214;47.454;18.966;2024-03-23T01:41:36;99828.16;;;5.60;83.89
77572;BME280;67214;47.454;18.966;2024-03-23T01:44:06;99821.28;;;5.65;83.77
77572;BME280;67214;47.454;18.966;2024-03-23T01:46:36;99819.12;;;5.65;83.77
77572;BME280;67214;47.454;18.966;2024-03-23T01:49:06;99822.30;;;5.62;83.67
77572;BME280;67214;47.454;18.966;2024-03-23T01:51:34;99824.42;;;5.57;83.63
77572;BME280;67214;47.454;18.966;2024-03-23T01:54:03;99821.88;;;5.56;83.76
77572;BME280;67214;47.454;18.966;2024-03-23T01:56:32;99817.93;;;5.56;83.86
77572;BME280;67214;47.454;18.966;2024-03-23T01:59:06;99813.73;;;5.53;83.94
77572;BME280;67214;47.454;18.966;2024-03-23T02:01:35;99813.64;;;5.48;83.86
77572;BME280;67214;47.454;18.966;2024-03-23T02:04:03;99806.59;;;5.48;83.83
77572;BME280;67214;47.454;18.966;2024-03-23T02:06:31;99808.47;;;5.46;83.70
77572;BME280;67214;47.454;18.966;2024-03-23T02:08:58;99804.27;;;5.44;83.75
77572;BME280;67214;47.454;18.966;2024-03-23T02:11:27;99802.98;;;5.37;83.69
77572;BME280;67214;47.454;18.966;2024-03-23T02:13:54;99799.59;;;5.35;83.86
77572;BME280;67214;47.454;18.966;2024-03-23T02:16:21;99797.77;;;5.30;84.00
77572;BME280;67214;47.454;18.966;2024-03-23T02:18:49;99790.89;;;5.27;84.18
77572;BME280;67214;47.454;18.966;2024-03-23T02:21:16;99795.52;;;5.24;84.43
77572;BME280;67214;47.454;18.966;2024-03-23T02:23:44;99795.13;;;5.23;84.63
77572;BME280;67214;47.454;18.966;2024-03-23T02:26:11;99797.03;;;5.21;84.79
77572;BME280;67214;47.454;18.966;2024-03-23T02:28:40;99791.02;;;5.19;84.85
77572;BME280;67214;47.454;18.966;2024-03-23T02:31:08;99786.16;;;5.12;85.16
77572;BME280;67214;47.454;18.966;2024-03-23T02:33:35;99789.73;;;5.11;85.32
77572;BME280;67214;47.454;18.966;2024-03-23T02:36:04;99785.02;;;5.09;85.41
77572;BME280;67214;47.454;18.966;2024-03-23T02:38:32;99774.84;;;5.05;85.47
77572;BME280;67214;47.454;18.966;2024-03-23T02:41:04;99775.85;;;5.02;85.55
77572;BME280;67214;47.454;18.966;2024-03-23T02:43:32;99771.73;;;4.98;85.65
77572;BME280;67214;47.454;18.966;2024-03-23T02:45:59;99755.41;;;4.93;86.20
77572;BME280;67214;47.454;18.966;2024-03-23T02:48:27;99764.73;;;4.92;86.41
77572;BME280;67214;47.454;18.966;2024-03-23T02:50:55;99759.67;;;4.89;86.45
77572;BME280;67214;47.454;18.966;2024-03-23T02:53:22;99763.70;;;4.87;86.35
77572;BME280;67214;47.454;18.966;2024-03-23T02:55:50;99763.78;;;4.86;86.27
77572;BME280;67214;47.454;18.966;2024-03-23T02:58:17;99769.34;;;4.88;86.04
77572;BME280;67214;47.454;18.966;2024-03-23T03:00:44;99751.70;;;4.83;86.16
77572;BME280;67214;47.454;18.966;2024-03-23T03:03:12;99763.14;;;4.82;86.46
77572;BME280;67214;47.454;18.966;2024-03-23T03:05:39;99758.00;;;4.81;86.66
77572;BME280;67214;47.454;18.966;2024-03-23T03:08:07;99755.38;;;4.81;86.69
77572;BME280;67214;47.454;18.966;2024-03-23T03:10:34;99747.47;;;4.88;86.43
77572;BME280;67214;47.454;18.966;2024-03-23T03:13:03;99752.61;;;4.89;86.11
77572;BME280;67214;47.454;18.966;2024-03-23T03:15:32;99744.17;;;4.91;86.23
77572;BME280;67214;47.454;18.966;2024-03-23T03:17:59;99750.48;;;4.89;86.26
77572;BME280;67214;47.454;18.966;2024-03-23T03:20:27;99747.17;;;4.85;86.26
77572;BME280;67214;47.454;18.966;2024-03-23T03:22:54;99745.13;;;4.83;86.44
77572;BME280;67214;47.454;18.966;2024-03-23T03:25:21;99750.88;;;4.76;86.66
77572;BME280;67214;47.454;18.966;2024-03-23T03:27:49;99745.80;;;4.80;86.56
77572;BME280;67214;47.454;18.966;2024-03-23T03:30:16;99739.12;;;4.81;86.31
77572;BME280;67214;47.454;18.966;2024-03-23T03:32:44;99740.63;;;4.78;86.20
77572;BME280;67214;47.454;18.966;2024-03-23T03:35:11;99742.41;;;4.78;86.35
77572;BME280;67214;47.454;18.966;2024-03-23T03:37:39;99736.43;;;4.76;86.64
77572;BME280;67214;47.454;18.966;2024-03-23T03:40:07;99732.95;;;4.75;86.73
77572;BME280;67214;47.454;18.966;2024-03-23T03:42:35;99731.27;;;4.74;86.73
77572;BME280;67214;47.454;18.966;2024-03-23T03:45:03;99727.23;;;4.76;86.68
77572;BME280;67214;47.454;18.966;2024-03-23T03:47:31;99726.41;;;4.68;87.07
77572;BME280;67214;47.454;18.966;2024-03-23T03:49:58;99730.53;;;4.72;86.87
77572;BME280;67214;47.454;18.966;2024-03-23T03:52:26;99727.32;;;4.74;86.79
77572;BME280;67214;47.454;18.966;2024-03-23T03:55:00;99720.75;;;4.74;86.67
77572;BME280;67214;47.454;18.966;2024-03-23T03:57:24;99718.42;;;4.77;86.64
77572;BME280;67214;47.454;18.966;2024-03-23T03:59:51;99716.17;;;4.71;86.70
77572;BME280;67214;47.454;18.966;2024-03-23T04:02:19;99725.45;;;4.76;86.71
77572;BME280;67214;47.454;18.966;2024-03-23T04:04:46;99719.56;;;4.73;86.86
77572;BME280;67214;47.454;18.966;2024-03-23T04:07:14;99712.50;;;4.80;86.72
77572;BME280;67214;47.454;18.966;2024-03-23T04:09:41;99719.91;;;4.74;86.92
77572;BME280;67214;47.454;18.966;2024-03-23T04:12:09;99713.34;;;4.81;86.46
77572;BME280;67214;47.454;18.966;2024-03-23T04:14:36;99718.48;;;4.82;86.33
77572;BME280;67214;47.454;18.966;2024-03-23T04:17:04;99717.93;;;4.84;86.31
77572;BME280;67214;47.454;18.966;2024-03-23T04:19:31;99707.51;;;4.83;86.22
77572;BME280;67214;47.454;18.966;2024-03-23T04:21:59;99711.16;;;4.87;86.28
77572;BME280;67214;47.454;18.966;2024-03-23T04:24:26;99710.02;;;4.91;86.20
77572;BME280;67214;47.454;18.966;2024-03-23T04:26:54;99700.44;;;4.90;86.18
77572;BME280;67214;47.454;18.966;2024-03-23T04:29:21;99702.89;;;4.86;86.21
77572;BME280;67214;47.454;18.966;2024-03-23T04:31:49;99703.95;;;4.84;86.36
77572;BME280;67214;47.454;18.966;2024-03-23T04:34:16;99694.75;;;4.84;86.43
77572;BME280;67214;47.454;18.966;2024-03-23T04:36:44;99707.42;;;4.84;86.45
77572;BME280;67214;47.454;18.966;2024-03-23T04:39:11;99704.62;;;4.80;86.65
77572;BME280;67214;47.454;18.966;2024-03-23T04:41:39;99698.52;;;4.80;86.82
77572;BME280;67214;47.454;18.966;2024-03-23T04:44:07;99702.55;;;4.78;86.94
77572;BME280;67214;47.454;18.966;2024-03-23T04:46:34;99712.50;;;4.80;86.99
77572;BME280;67214;47.454;18.966;2024-03-23T04:49:01;99695.60;;;4.84;86.80
77572;BME280;67214;47.454;18.966;2024-03-23T04:51:37;99692.47;;;4.92;86.31
77572;BME280;67214;47.454;18.966;2024-03-23T04:54:06;99696.88;;;4.91;86.33
77572;BME280;67214;47.454;18.966;2024-03-23T04:56:33;99694.25;;;4.91;86.39
77572;BME280;67214;47.454;18.966;2024-03-23T04:59:02;99673.50;;;4.94;86.33
77572;BME280;67214;47.454;18.966;2024-03-23T05:01:32;99693.20;;;5.01;86.22
77572;BME280;67214;47.454;18.966;2024-03-23T05:04:00;99694.77;;;5.03;86.13
77572;BME280;67214;47.454;18.966;2024-03-23T05:06:27;99687.27;;;5.04;86.07
77572;BME280;67214;47.454;18.966;2024-03-23T05:08:55;99686.84;;;5.10;86.10
77572;BME280;67214;47.454;18.966;2024-03-23T05:11:22;99694.05;;;5.21;85.62
77572;BME280;67214;47.454;18.966;2024-03-23T05:13:50;99693.84;;;5.24;85.68
77572;BME280;67214;47.454;18.966;2024-03-23T05:16:17;99687.17;;;5.26;85.64
77572;BME280;67214;47.454;18.966;2024-03-23T05:18:44;99689.05;;;5.24;85.66
77572;BME280;67214;47.454;18.966;2024-03-23T05:21:12;99672.55;;;5.22;85.85
77572;BME280;67214;47.454;18.966;2024-03-23T05:23:39;99691.63;;;5.31;85.90
77572;BME280;67214;47.454;18.966;2024-03-23T05:26:07;99684.83;;;5.41;85.72
77572;BME280;67214;47.454;18.966;2024-03-23T05:28:34;99685.88;;;5.51;84.70
77572;BME280;67214;47.454;18.966;2024-03-23T05:31:02;99675.65;;;5.53;84.34
77572;BME280;67214;47.454;18.966;2024-03-23T05:33:30;99687.02;;;5.54;84.38
77572;BME280;67214;47.454;18.966;2024-03-23T05:35:58;99676.53;;;5.59;84.40
77572;BME280;67214;47.454;18.966;2024-03-23T05:38:26;99677.38;;;5.60;84.23
77572;BME280;67214;47.454;18.966;2024-03-23T05:40:55;99680.95;;;5.72;84.07
77572;BME280;67214;47.454;18.966;2024-03-23T05:43:23;99675.84;;;5.63;84.22
77572;BME280;67214;47.454;18.966;2024-03-23T05:45:57;99665.96;;;5.79;83.93
77572;BME280;67214;47.454;18.966;2024-03-23T05:48:28;99681.16;;;5.88;83.67
77572;BME280;67214;47.454;18.966;2024-03-23T05:50:57;99671.53;;;5.94;83.25
77572;BME280;67214;47.454;18.966;2024-03-23T05:53:24;99680.61;;;6.08;83.15
77572;BME280;67214;47.454;18.966;2024-03-23T05:56:00;99673.08;;;6.22;82.59
77572;BME280;67214;47.454;18.966;2024-03-23T05:58:22;99679.31;;;6.39;82.01
77572;BME280;67214;47.454;18.966;2024-03-23T06:00:56;99678.91;;;6.51;81.00
77572;BME280;67214;47.454;18.966;2024-03-23T06:03:20;99670.09;;;6.58;80.99
77572;BME280;67214;47.454;18.966;2024-03-23T06:05:48;99667.50;;;6.63;81.07
77572;BME280;67214;47.454;18.966;2024-03-23T06:08:15;99665.02;;;6.73;80.92
77572;BME280;67214;47.454;18.966;2024-03-23T06:10:42;99657.80;;;6.87;80.65
77572;BME280;67214;47.454;18.966;2024-03-23T06:13:10;99652.24;;;7.03;80.17
77572;BME280;67214;47.454;18.966;2024-03-23T06:15:38;99652.98;;;7.11;79.79
77572;BME280;67214;47.454;18.966;2024-03-23T06:18:05;99652.55;;;7.22;79.58
77572;BME280;67214;47.454;18.966;2024-03-23T06:20:35;99640.86;;;7.43;78.76
77572;BME280;67214;47.454;18.966;2024-03-23T06:23:02;99644.63;;;7.57;78.38
77572;BME280;67214;47.454;18.966;2024-03-23T06:25:30;99637.44;;;7.65;78.34
77572;BME280;67214;47.454;18.966;2024-03-23T06:27:57;99633.95;;;7.75;78.37
77572;BME280;67214;47.454;18.966;2024-03-23T06:30:26;99619.81;;;8.04;77.23
77572;BME280;67214;47.454;18.966;2024-03-23T06:32:53;99613.56;;;8.16;77.00
77572;BME280;67214;47.454;18.966;2024-03-23T06:35:21;99621.13;;;8.26;77.28
77572;BME280;67214;47.454;18.966;2024-03-23T06:37:48;99619.08;;;8.41;77.48
77572;BME280;67214;47.454;18.966;2024-03-23T06:40:16;99617.61;;;8.59;77.31
77572;BME280;67214;47.454;18.966;2024-03-23T06:42:43;99612.66;;;8.71;76.93
77572;BME280;67214;47.454;18.966;2024-03-23T06:45:10;99617.48;;;8.93;75.95
77572;BME280;67214;47.454;18.966;2024-03-23T06:47:38;99619.34;;;9.13;75.73
77572;BME280;67214;47.454;18.966;2024-03-23T06:50:06;99623.30;;;9.33;74.51
77572;BME280;67214;47.454;18.966;2024-03-23T06:52:33;99617.34;;;9.62;74.30
77572;BME280;67214;47.454;18.966;2024-03-23T06:55:01;99606.46;;;9.70;73.49
77572;BME280;67214;47.454;18.966;2024-03-23T06:57:30;99619.01;;;9.84;73.34
77572;BME280;67214;47.454;18.966;2024-03-23T06:59:58;99612.05;;;9.98;72.67
77572;BME280;67214;47.454;18.966;2024-03-23T07:02:25;99598.22;;;10.24;71.95
77572;BME280;67214;47.454;18.966;2024-03-23T07:04:53;99609.73;;;10.54;71.47
77572;BME280;67214;47.454;18.966;2024-03-23T07:07:20;99595.25;;;10.77;70.80
77572;BME280;67214;47.454;18.966;2024-03-23T07:09:48;99605.03;;;10.86;69.09
77572;BME280;67214;47.454;18.966;2024-03-23T07:12:15;99597.41;;;10.97;69.30
77572;BME280;67214;47.454;18.966;2024-03-23T07:14:43;99582.28;;;11.03;69.01
77572;BME280;67214;47.454;18.966;2024-03-23T07:17:11;99585.19;;;11.09;68.78
77572;BME280;67214;47.454;18.966;2024-03-23T07:19:39;99583.64;;;11.26;68.47
77572;BME280;67214;47.454;18.966;2024-03-23T07:22:06;99588.34;;;11.61;68.15
77572;BME280;67214;47.454;18.966;2024-03-23T07:24:34;99587.05;;;11.75;67.20
77572;BME280;67214;47.454;18.966;2024-03-23T07:27:01;99586.70;;;11.97;66.66
77572;BME280;67214;47.454;18.966;2024-03-23T07:29:29;99578.18;;;12.07;66.25
77572;BME280;67214;47.454;18.966;2024-03-23T07:31:57;99579.14;;;12.02;66.40
77572;BME280;67214;47.454;18.966;2024-03-23T07:34:24;99573.17;;;12.04;66.31
77572;BME280;67214;47.454;18.966;2024-03-23T07:36:52;99567.47;;;12.26;65.48
77572;BME280;67214;47.454;18.966;2024-03-23T07:39:19;99564.25;;;12.36;65.83
77572;BME280;67214;47.454;18.966;2024-03-23T07:41:46;99548.46;;;12.52;65.08
77572;BME280;67214;47.454;18.966;2024-03-23T07:44:14;99543.03;;;12.76;64.89
77572;BME280;67214;47.454;18.966;2024-03-23T07:46:41;99545.27;;;13.02;64.61
77572;BME280;67214;47.454;18.966;2024-03-23T07:49:09;99545.63;;;13.25;64.52
77572;BME280;67214;47.454;18.966;2024-03-23T07:51:36;99534.59;;;13.41;63.76
77572;BME280;67214;47.454;18.966;2024-03-23T07:54:05;99532.33;;;13.50;63.80
77572;BME280;67214;47.454;18.966;2024-03-23T07:56:33;99534.25;;;13.66;63.46
77572;BME280;67214;47.454;18.966;2024-03-23T07:59:00;99534.89;;;13.60;63.26
77572;BME280;67214;47.454;18.966;2024-03-23T08:01:29;99535.36;;;13.56;62.80
77572;BME280;67214;47.454;18.966;2024-03-23T08:03:57;99522.66;;;13.49;63.20
77572;BME280;67214;47.454;18.966;2024-03-23T08:06:24;99531.39;;;13.60;63.00
77572;BME280;67214;47.454;18.966;2024-03-23T08:08:56;99532.58;;;13.61;62.99
77572;BME280;67214;47.454;18.966;2024-03-23T08:11:27;99520.13;;;13.74;62.70
77572;BME280;67214;47.454;18.966;2024-03-23T08:13:55;99526.14;;;13.76;62.85
77572;BME280;67214;47.454;18.966;2024-03-23T08:16:23;99527.95;;;13.71;62.72
77572;BME280;67214;47.454;18.966;2024-03-23T08:18:54;99524.03;;;13.58;62.93
77572;BME280;67214;47.454;18.966;2024-03-23T08:21:24;99528.37;;;13.59;63.68
77572;BME280;67214;47.454;18.966;2024-03-23T08:23:52;99529.69;;;13.55;63.89
77572;BME280;67214;47.454;18.966;2024-03-23T08:26:20;99532.25;;;13.64;63.37
77572;BME280;67214;47.454;18.966;2024-03-23T08:28:47;99526.23;;;13.62;63.45
77572;BME280;67214;47.454;18.966;2024-03-23T08:31:15;99523.09;;;13.67;63.33
77572;BME280;67214;47.454;18.966;2024-03-23T08:33:42;99511.28;;;13.65;63.45
77572;BME280;67214;47.454;18.966;2024-03-23T08:36:10;99502.64;;;14.13;63.03
77572;BME280;67214;47.454;18.966;2024-03-23T08:38:38;99503.75;;;14.53;61.24
77572;BME280;67214;47.454;18.966;2024-03-23T08:41:07;99496.75;;;14.72;61.69
77572;BME280;67214;47.454;18.966;2024-03-23T08:43:42;99490.76;;;15.06;60.26
77572;BME280;67214;47.454;18.966;2024-03-23T08:46:10;99480.38;;;15.31;59.72
77572;BME280;67214;47.454;18.966;2024-03-23T08:48:43;99480.66;;;15.41;59.65
77572;BME280;67214;47.454;18.966;2024-03-23T08:51:13;99479.50;;;15.55;59.66
77572;BME280;67214;47.454;18.966;2024-03-23T08:53:41;99472.47;;;15.58;59.63
77572;BME280;67214;47.454;18.966;2024-03-23T08:56:09;99469.58;;;15.76;59.13
77572;BME280;67214;47.454;18.966;2024-03-23T08:58:38;99465.28;;;15.98;58.03
77572;BME280;67214;47.454;18.966;2024-03-23T09:01:10;99456.66;;;16.14;56.82
77572;BME280;67214;47.454;18.966;2024-03-23T09:03:39;99459.49;;;16.44;56.49
77572;BME280;67214;47.454;18.966;2024-03-23T09:06:12;99455.09;;;16.51;55.61
77572;BME280;67214;47.454;18.966;2024-03-23T09:08:40;99452.17;;;16.87;55.11
77572;BME280;67214;47.454;18.966;2024-03-23T09:11:10;99449.72;;;16.96;54.68
77572;BME280;67214;47.454;18.966;2024-03-23T09:13:38;99435.48;;;16.62;55.04
77572;BME280;67214;47.454;18.966;2024-03-23T09:16:06;99435.44;;;16.85;55.60
77572;BME280;67214;47.454;18.966;2024-03-23T09:18:36;99434.82;;;16.98;55.09
77572;BME280;67214;47.454;18.966;2024-03-23T09:21:06;99429.46;;;16.98;54.73
77572;BME280;67214;47.454;18.966;2024-03-23T09:23:33;99421.42;;;16.98;54.58
77572;BME280;67214;47.454;18.966;2024-03-23T09:26:05;99414.98;;;17.07;54.47
77572;BME280;67214;47.454;18.966;2024-03-23T09:28:34;99414.60;;;17.25;54.28
77572;BME280;67214;47.454;18.966;2024-03-23T09:31:05;99413.17;;;17.33;53.96
77572;BME280;67214;47.454;18.966;2024-03-23T09:33:35;99407.27;;;17.52;54.29
77572;BME280;67214;47.454;18.966;2024-03-23T09:36:06;99407.70;;;17.59;53.26
77572;BME280;67214;47.454;18.966;2024-03-23T09:38:34;99392.95;;;17.59;53.08
77572;BME280;67214;47.454;18.966;2024-03-23T09:41:06;99395.88;;;17.79;50.79
77572;BME280;67214;47.454;18.966;2024-03-23T09:43:32;99390.50;;;17.69;50.23
77572;BME280;67214;47.454;18.966;2024-03-23T09:45:59;99386.55;;;17.75;50.11
77572;BME280;67214;47.454;18.966;2024-03-23T09:48:27;99388.33;;;18.04;49.81
77572;BME280;67214;47.454;18.966;2024-03-23T09:50:55;99381.55;;;18.40;48.10
77572;BME280;67214;47.454;18.966;2024-03-23T09:53:23;99383.97;;;17.92;48.88
77572;BME280;67214;47.454;18.966;2024-03-23T09:55:50;99388.20;;;18.12;48.54
77572;BME280;67214;47.454;18.966;2024-03-23T09:58:18;99378.03;;;18.18;48.56
77572;BME280;67214;47.454;18.966;2024-03-23T10:00:46;99375.61;;;18.44;48.46
77572;BME280;67214;47.454;18.966;2024-03-23T10:03:14;99369.41;;;18.23;49.10
77572;BME280;67214;47.454;18.966;2024-03-23T10:05:41;99361.36;;;18.54;48.77
77572;BME280;67214;47.454;18.966;2024-03-23T10:08:17;99351.00;;;18.90;48.38
77572;BME280;67214;47.454;18.966;2024-03-23T10:10:46;99344.35;;;19.20;46.26
77572;BME280;67214;47.454;18.966;2024-03-23T10:13:27;99346.37;;;19.12;45.74
77572;BME280;67214;47.454;18.966;2024-03-23T10:15:59;99340.94;;;18.98;45.63
77572;BME280;67214;47.454;18.966;2024-03-23T10:18:27;99335.61;;;19.12;44.67
77572;BME280;67214;47.454;18.966;2024-03-23T10:21:09;99330.16;;;19.50;44.21
77572;BME280;67214;47.454;18.966;2024-03-23T10:23:42;99332.95;;;19.83;43.81
77572;BME280;67214;47.454;18.966;2024-03-23T10:28:58;99333.31;;;19.60;44.29
77572;BME280;67214;47.454;18.966;2024-03-23T10:31:28;99322.57;;;19.26;44.84
77572;BME280;67214;47.454;18.966;2024-03-23T10:33:56;99317.35;;;19.52;45.60
77572;BME280;67214;47.454;18.966;2024-03-23T10:36:24;99316.52;;;19.52;44.03
77572;BME280;67214;47.454;18.966;2024-03-23T10:38:53;99306.78;;;19.51;42.45
77572;BME280;67214;47.454;18.966;2024-03-23T10:41:21;99296.21;;;19.32;42.34
77572;BME280;67214;47.454;18.966;2024-03-23T10:43:49;99297.47;;;19.36;42.48
77572;BME280;67214;47.454;18.966;2024-03-23T10:46:16;99308.95;;;19.34;42.13
77572;BME280;67214;47.454;18.966;2024-03-23T10:48:44;99286.29;;;19.32;42.74
77572;BME280;67214;47.454;18.966;2024-03-23T10:51:13;99287.55;;;19.54;42.99
77572;BME280;67214;47.454;18.966;2024-03-23T10:53:41;99277.33;;;19.60;42.44
77572;BME280;67214;47.454;18.966;2024-03-23T10:56:10;99278.55;;;19.40;42.77
77572;BME280;67214;47.454;18.966;2024-03-23T10:58:48;99277.02;;;19.41;42.40
77572;BME280;67214;47.454;18.966;2024-03-23T11:01:15;99276.27;;;19.47;42.25
77572;BME280;67214;47.454;18.966;2024-03-23T11:03:46;99270.05;;;19.54;40.75
77572;BME280;67214;47.454;18.966;2024-03-23T11:06:34;99257.53;;;19.50;40.58
77572;BME280;67214;47.454;18.966;2024-03-23T11:09:02;99269.30;;;19.86;40.97
77572;BME280;67214;47.454;18.966;2024-03-23T11:11:30;99254.76;;;19.61;40.65
77572;BME280;67214;47.454;18.966;2024-03-23T11:14:00;99248.92;;;19.94;40.70
77572;BME280;67214;47.454;18.966;2024-03-23T11:16:30;99240.53;;;20.26;40.50
77572;BME280;67214;47.454;18.966;2024-03-23T11:19:35;99236.93;;;20.16;40.69
77572;BME280;67214;47.454;18.966;2024-03-23T11:22:04;99226.25;;;20.19;40.81
77572;BME280;67214;47.454;18.966;2024-03-23T11:24:34;99215.53;;;20.67;39.87
77572;BME280;67214;47.454;18.966;2024-03-23T11:27:01;99218.38;;;20.57;39.66
77572;BME280;67214;47.454;18.966;2024-03-23T11:29:30;99215.34;;;20.69;40.18
77572;BME280;67214;47.454;18.966;2024-03-23T11:31:58;99221.52;;;21.18;37.91
77572;BME280;67214;47.454;18.966;2024-03-23T11:34:45;99211.81;;;20.68;38.21
77572;BME280;67214;47.454;18.966;2024-03-23T11:37:12;99201.00;;;20.75;38.30
77572;BME280;67214;47.454;18.966;2024-03-23T11:39:40;99203.17;;;20.75;38.43
77572;BME280;67214;47.454;18.966;2024-03-23T11:42:07;99187.23;;;20.67;37.98
77572;BME280;67214;47.454;18.966;2024-03-23T11:44:35;99188.86;;;20.81;38.46
77572;BME280;67214;47.454;18.966;2024-03-23T11:47:09;99194.17;;;20.37;39.45
77572;BME280;67214;47.454;18.966;2024-03-23T11:49:37;99176.86;;;20.77;38.88
77572;BME280;67214;47.454;18.966;2024-03-23T11:52:06;99175.11;;;20.74;38.57
77572;BME280;67214;47.454;18.966;2024-03-23T11:54:34;99177.41;;;20.93;38.77
77572;BME280;67214;47.454;18.966;2024-03-23T11:57:04;99162.41;;;21.10;39.50
77572;BME280;67214;47.454;18.966;2024-03-23T11:59:37;99166.16;;;21.31;38.81
77572;BME280;67214;47.454;18.966;2024-03-23T12:02:10;99152.28;;;20.76;39.18
77572;BME280;67214;47.454;18.966;2024-03-23T12:04:40;99159.45;;;20.96;38.96
77572;BME280;67214;47.454;18.966;2024-03-23T12:07:18;99156.74;;;21.02;38.28
77572;BME280;67214;47.454;18.966;2024-03-23T12:10:07;99148.56;;;20.71;38.82
77572;BME280;67214;47.454;18.966;2024-03-23T12:12:21;99142.38;;;20.64;38.67
77572;BME280;67214;47.454;18.966;2024-03-23T12:15:08;99127.16;;;20.60;38.97
77572;BME280;67214;47.454;18.966;2024-03-23T12:17:35;99134.19;;;20.19;38.73
77572;BME280;67214;47.454;18.966;2024-03-23T12:20:03;99121.58;;;20.13;38.76
77572;BME280;67214;47.454;18.966;2024-03-23T12:22:31;99116.98;;;20.40;38.62
77572;BME280;67214;47.454;18.966;2024-03-23T12:25:00;99111.19;;;20.36;38.19
77572;BME280;67214;47.454;18.966;2024-03-23T12:27:28;99108.38;;;20.34;38.46
77572;BME280;67214;47.454;18.966;2024-03-23T12:29:55;99102.31;;;20.29;39.34
77572;BME280;67214;47.454;18.966;2024-03-23T12:32:23;99107.34;;;20.22;38.99
77572;BME280;67214;47.454;18.966;2024-03-23T12:34:50;99103.94;;;20.37;39.31
77572;BME280;67214;47.454;18.966;2024-03-23T12:37:17;99095.30;;;19.95;37.97
77572;BME280;67214;47.454;18.966;2024-03-23T12:39:45;99096.66;;;19.82;38.45
77572;BME280;67214;47.454;18.966;2024-03-23T12:42:13;99094.06;;;19.91;38.54
77572;BME280;67214;47.454;18.966;2024-03-23T12:44:41;99094.08;;;19.78;38.59
77572;BME280;67214;47.454;18.966;2024-03-23T12:47:08;99075.16;;;19.63;38.94
77572;BME280;67214;47.454;18.966;2024-03-23T12:49:37;99080.23;;;19.68;39.16
77572;BME280;67214;47.454;18.966;2024-03-23T12:52:05;99075.25;;;19.65;39.22
77572;BME280;67214;47.454;18.966;2024-03-23T12:54:34;99079.41;;;19.48;38.72
77572;BME280;67214;47.454;18.966;2024-03-23T12:57:01;99075.77;;;19.58;39.10
77572;BME280;67214;47.454;18.966;2024-03-23T12:59:28;99064.80;;;19.53;39.41
77572;BME280;67214;47.454;18.966;2024-03-23T13:01:56;99069.69;;;19.47;38.61
77572;BME280;67214;47.454;18.966;2024-03-23T13:04:24;99072.89;;;19.46;39.14
77572;BME280;67214;47.454;18.966;2024-03-23T13:06:51;99058.89;;;19.34;39.32
77572;BME280;67214;47.454;18.966;2024-03-23T13:09:19;99067.47;;;19.33;39.69
77572;BME280;67214;47.454;18.966;2024-03-23T13:11:46;99054.86;;;19.27;39.67
77572;BME280;67214;47.454;18.966;2024-03-23T13:14:13;99058.67;;;19.29;39.68
77572;BME280;67214;47.454;18.966;2024-03-23T13:16:43;99053.63;;;19.23;39.71
77572;BME280;67214;47.454;18.966;2024-03-23T13:19:11;99045.75;;;19.15;39.59
77572;BME280;67214;47.454;18.966;2024-03-23T13:21:39;99044.52;;;19.11;39.79
77572;BME280;67214;47.454;18.966;2024-03-23T13:24:07;99045.12;;;19.13;40.08
77572;BME280;67214;47.454;18.966;2024-03-23T13:26:34;99041.18;;;19.16;40.55
77572;BME280;67214;47.454;18.966;2024-03-23T13:29:02;99037.69;;;19.15;40.92
77572;BME280;67214;47.454;18.966;2024-03-23T13:31:29;99037.38;;;19.14;40.53
77572;BME280;67214;47.454;18.966;2024-03-23T13:33:56;99033.64;;;19.09;39.98
77572;BME280;67214;47.454;18.966;2024-03-23T13:36:24;99030.95;;;19.09;39.87
77572;BME280;67214;47.454;18.966;2024-03-23T13:38:51;99028.67;;;19.06;40.44
77572;BME280;67214;47.454;18.966;2024-03-23T13:41:19;99028.59;;;19.03;39.90
77572;BME280;67214;47.454;18.966;2024-03-23T13:43:46;99021.64;;;18.98;40.48
77572;BME280;67214;47.454;18.966;2024-03-23T13:46:13;99019.16;;;18.96;40.85
77572;BME280;67214;47.454;18.966;2024-03-23T13:48:41;99013.27;;;18.90;40.84
77572;BME280;67214;47.454;18.966;2024-03-23T13:51:08;99002.81;;;18.91;40.94
77572;BME280;67214;47.454;18.966;2024-03-23T13:53:36;99000.34;;;18.96;41.54
77572;BME280;67214;47.454;18.966;2024-03-23T13:56:04;98995.37;;;19.00;40.41